createdAt,value
2023-01-03T00:00:09.950Z,40.31
2023-01-03T00:01:10.037Z,40.30
2023-01-03T00:02:10.147Z,40.32
2023-01-03T00:03:10.148Z,40.34
2023-01-03T00:04:10.325Z,40.30
2023-01-03T00:05:10.331Z,40.32
2023-01-03T00:06:10.411Z,40.33
2023-01-03T00:07:10.501Z,40.33
2023-01-03T00:08:10.554Z,40.33
2023-01-03T00:09:10.646Z,40.34
2023-01-03T00:10:10.757Z,40.33
2023-01-03T00:11:10.803Z,40.34
2023-01-03T00:12:10.860Z,40.31
2023-01-03T00:13:10.975Z,40.35
2023-01-03T00:14:11.040Z,40.34
2023-01-03T00:15:11.112Z,40.34
2023-01-03T00:16:11.184Z,40.34
2023-01-03T00:17:11.424Z,40.36
2023-01-03T00:18:11.346Z,40.36
2023-01-03T00:19:11.456Z,40.37
2023-01-03T00:20:11.521Z,40.35
2023-01-03T00:21:11.609Z,40.33
2023-01-03T00:22:11.721Z,40.35
2023-01-03T00:23:11.753Z,40.37
2023-01-03T00:24:11.877Z,40.35
2023-01-03T00:25:11.952Z,40.37
2023-01-03T00:26:12.017Z,40.36
2023-01-03T00:27:12.093Z,40.38
2023-01-03T00:28:18.156Z,40.37
2023-01-03T00:29:12.269Z,40.39
2023-01-03T00:30:12.339Z,40.37
2023-01-03T00:31:12.484Z,40.37
2023-01-03T00:32:12.515Z,40.37
2023-01-03T00:33:12.657Z,40.39
2023-01-03T00:34:12.679Z,40.41
2023-01-03T00:35:12.768Z,40.41
2023-01-03T00:36:12.875Z,40.41
2023-01-03T00:37:12.927Z,40.40
2023-01-03T00:38:13.019Z,40.40
2023-01-03T00:39:13.118Z,40.40
2023-01-03T00:40:13.195Z,40.41
2023-01-03T00:41:13.285Z,40.40
2023-01-03T00:42:13.380Z,40.42
2023-01-03T00:43:13.464Z,40.43
2023-01-03T00:44:13.520Z,40.43
2023-01-03T00:45:17.699Z,40.41
2023-01-03T00:46:13.734Z,40.44
2023-01-03T00:47:13.781Z,40.43
2023-01-03T00:48:13.855Z,40.44
2023-01-03T00:49:13.945Z,40.46
2023-01-03T00:50:14.020Z,40.47
2023-01-03T00:51:14.094Z,40.45
2023-01-03T00:52:14.167Z,40.44
2023-01-03T00:53:14.273Z,40.42
2023-01-03T00:54:14.333Z,40.43
2023-01-03T00:55:14.387Z,40.44
2023-01-03T00:56:14.470Z,40.44
2023-01-03T00:57:14.557Z,40.46
2023-01-03T00:58:14.640Z,40.44
2023-01-03T00:59:20.685Z,40.43
2023-01-03T01:00:14.811Z,40.46
2023-01-03T01:01:15.006Z,40.49
2023-01-03T01:02:15.280Z,40.47
2023-01-03T01:03:15.370Z,40.45
2023-01-03T01:04:15.183Z,40.48
2023-01-03T01:05:15.229Z,40.49
2023-01-03T01:06:15.290Z,40.50
2023-01-03T01:07:15.373Z,40.48
2023-01-03T01:08:15.451Z,40.49
2023-01-03T01:09:15.555Z,40.50
2023-01-03T01:10:15.656Z,40.51
2023-01-03T01:11:15.722Z,40.49
2023-01-03T01:12:15.807Z,40.50
2023-01-03T01:13:15.919Z,40.48
2023-01-03T01:14:15.984Z,40.48
2023-01-03T01:15:16.098Z,40.49
2023-01-03T01:16:16.215Z,40.49
2023-01-03T01:17:22.254Z,40.50
2023-01-03T01:18:16.292Z,40.49
2023-01-03T01:19:16.367Z,40.51
2023-01-03T01:20:16.489Z,40.55
2023-01-03T01:21:16.549Z,40.56
2023-01-03T01:22:16.642Z,40.54
2023-01-03T01:23:16.731Z,40.54
2023-01-03T01:24:18.225Z,40.52
2023-01-03T01:25:16.931Z,40.53
2023-01-03T01:26:17.065Z,40.54
2023-01-03T01:27:17.087Z,40.54
2023-01-03T01:28:17.161Z,40.55
2023-01-03T01:29:17.252Z,40.55
2023-01-03T01:30:23.316Z,40.55
2023-01-03T01:31:17.556Z,40.58
2023-01-03T01:32:17.530Z,40.57
2023-01-03T01:33:17.594Z,40.57
2023-01-03T01:34:17.658Z,40.57
2023-01-03T01:35:17.737Z,40.55
2023-01-03T01:36:17.786Z,40.57
2023-01-03T01:37:17.849Z,40.55
2023-01-03T01:38:17.959Z,40.55
2023-01-03T01:39:18.038Z,40.57
2023-01-03T01:40:18.108Z,40.57
2023-01-03T01:41:18.200Z,40.57
2023-01-03T01:42:20.430Z,40.59
2023-01-03T01:43:18.372Z,40.60
2023-01-03T01:44:18.458Z,40.58
2023-01-03T01:45:18.537Z,40.58
2023-01-03T01:46:18.696Z,40.60
2023-01-03T01:47:18.703Z,40.60
2023-01-03T01:48:18.816Z,40.59
2023-01-03T01:49:18.937Z,40.59
2023-01-03T01:50:18.958Z,40.59
2023-01-03T01:51:19.044Z,40.59
2023-01-03T01:52:19.144Z,40.59
2023-01-03T01:53:19.257Z,40.59
2023-01-03T01:54:19.309Z,40.60
2023-01-03T01:55:19.422Z,40.59
2023-01-03T01:56:19.513Z,40.59
2023-01-03T01:57:19.577Z,40.62
2023-01-03T01:58:19.667Z,40.60
2023-01-03T01:59:19.727Z,40.62
2023-01-03T02:00:19.826Z,40.63
2023-01-03T02:01:26.009Z,40.64
2023-01-03T02:02:20.182Z,40.67
2023-01-03T02:03:20.157Z,40.64
2023-01-03T02:04:20.154Z,40.62
2023-01-03T02:05:20.254Z,40.61
2023-01-03T02:06:20.356Z,40.63
2023-01-03T02:07:20.425Z,40.63
2023-01-03T02:08:20.509Z,40.63
2023-01-03T02:09:20.578Z,40.61
2023-01-03T02:10:20.670Z,40.61
2023-01-03T02:11:20.770Z,40.61
2023-01-03T02:12:20.835Z,40.63
2023-01-03T02:13:20.934Z,40.64
2023-01-03T02:14:21.014Z,40.62
2023-01-03T02:15:21.084Z,40.62
2023-01-03T02:16:21.265Z,40.61
2023-01-03T02:17:21.262Z,40.62
2023-01-03T02:18:21.347Z,40.62
2023-01-03T02:19:21.467Z,40.67
2023-01-03T02:20:21.535Z,40.65
2023-01-03T02:21:21.652Z,40.65
2023-01-03T02:22:21.735Z,40.66
2023-01-03T02:23:21.821Z,40.66
2023-01-03T02:24:21.917Z,40.67
2023-01-03T02:25:22.004Z,40.63
2023-01-03T02:26:22.073Z,40.66
2023-01-03T02:27:22.148Z,40.65
2023-01-03T02:28:22.237Z,40.63
2023-01-03T02:29:22.327Z,40.62
2023-01-03T02:30:22.403Z,40.65
2023-01-03T02:31:22.469Z,40.63
2023-01-03T02:32:28.551Z,40.65
2023-01-03T02:33:22.670Z,40.69
2023-01-03T02:34:22.718Z,40.66
2023-01-03T02:35:22.808Z,40.65
2023-01-03T02:36:22.891Z,40.66
2023-01-03T02:37:22.958Z,40.66
2023-01-03T02:38:23.024Z,40.66
2023-01-03T02:39:23.947Z,40.66
2023-01-03T02:40:23.212Z,40.66
2023-01-03T02:41:23.294Z,40.66
2023-01-03T02:42:23.371Z,40.67
2023-01-03T02:43:23.444Z,40.63
2023-01-03T02:44:23.542Z,40.63
2023-01-03T02:45:23.612Z,40.62
2023-01-03T02:46:23.775Z,40.62
2023-01-03T02:47:23.779Z,40.63
2023-01-03T02:48:23.877Z,40.62
2023-01-03T02:49:23.965Z,40.65
2023-01-03T02:50:24.081Z,40.65
2023-01-03T02:51:24.144Z,40.66
2023-01-03T02:52:24.240Z,40.68
2023-01-03T02:53:24.331Z,40.67
2023-01-03T02:54:24.406Z,40.65
2023-01-03T02:55:24.495Z,40.65
2023-01-03T02:56:24.553Z,40.64
2023-01-03T02:57:24.626Z,40.64
2023-01-03T02:58:24.706Z,40.66
2023-01-03T02:59:24.791Z,40.64
2023-01-03T03:00:24.864Z,40.64
2023-01-03T03:01:25.057Z,40.67
2023-01-03T03:02:25.215Z,40.67
2023-01-03T03:03:31.156Z,40.66
2023-01-03T03:04:25.169Z,40.70
2023-01-03T03:05:25.241Z,40.68
2023-01-03T03:06:25.311Z,40.67
2023-01-03T03:07:25.421Z,40.67
2023-01-03T03:08:25.501Z,40.66
2023-01-03T03:09:25.585Z,40.68
2023-01-03T03:10:25.651Z,40.67
2023-01-03T03:11:25.731Z,40.65
2023-01-03T03:12:25.811Z,40.67
2023-01-03T03:13:25.870Z,40.65
2023-01-03T03:14:25.963Z,40.66
2023-01-03T03:15:26.032Z,40.65
2023-01-03T03:16:26.176Z,40.67
2023-01-03T03:17:26.157Z,40.68
2023-01-03T03:18:26.267Z,40.65
2023-01-03T03:19:26.333Z,40.69
2023-01-03T03:20:26.413Z,40.71
2023-01-03T03:21:26.516Z,40.70
2023-01-03T03:22:26.598Z,40.69
2023-01-03T03:23:26.707Z,40.71
2023-01-03T03:24:26.760Z,40.71
2023-01-03T03:25:26.860Z,40.70
2023-01-03T03:26:26.932Z,40.71
2023-01-03T03:27:27.024Z,40.70
2023-01-03T03:28:27.095Z,40.72
2023-01-03T03:29:27.202Z,40.72
2023-01-03T03:30:27.276Z,40.74
2023-01-03T03:31:27.456Z,40.74
2023-01-03T03:32:27.455Z,40.71
2023-01-03T03:33:27.514Z,40.72
2023-01-03T03:34:33.799Z,40.72
2023-01-03T03:35:27.675Z,40.75
2023-01-03T03:36:27.754Z,40.73
2023-01-03T03:37:27.828Z,40.74
2023-01-03T03:38:27.908Z,40.71
2023-01-03T03:39:27.973Z,40.70
2023-01-03T03:40:28.057Z,40.71
2023-01-03T03:41:28.116Z,40.70
2023-01-03T03:42:28.178Z,40.71
2023-01-03T03:43:28.265Z,40.70
2023-01-03T03:44:28.355Z,40.72
2023-01-03T03:45:28.426Z,40.71
2023-01-03T03:46:28.580Z,40.76
2023-01-03T03:47:28.568Z,40.78
2023-01-03T03:48:28.685Z,40.77
2023-01-03T03:49:28.722Z,40.78
2023-01-03T03:50:28.805Z,40.75
2023-01-03T03:51:28.912Z,40.75
2023-01-03T03:52:28.997Z,40.77
2023-01-03T03:53:29.083Z,40.72
2023-01-03T03:54:29.150Z,40.65
2023-01-03T03:55:29.243Z,40.56
2023-01-03T03:56:29.334Z,40.43
2023-01-03T03:57:29.425Z,40.37
2023-01-03T03:58:29.533Z,40.28
2023-01-03T03:59:29.588Z,40.22
2023-01-03T04:00:29.669Z,40.17
2023-01-03T04:01:29.969Z,40.12
2023-01-03T04:02:29.868Z,40.12
2023-01-03T04:03:29.971Z,40.09
2023-01-03T04:04:30.046Z,40.05
2023-01-03T04:05:36.059Z,40.04
2023-01-03T04:06:30.166Z,40.07
2023-01-03T04:07:30.244Z,40.02
2023-01-03T04:08:30.338Z,40.01
2023-01-03T04:09:30.410Z,39.99
2023-01-03T04:10:37.241Z,39.99
2023-01-03T04:11:30.576Z,40.00
2023-01-03T04:12:30.669Z,39.99
2023-01-03T04:13:30.751Z,39.99
2023-01-03T04:14:30.859Z,39.95
2023-01-03T04:15:30.929Z,39.94
2023-01-03T04:16:31.103Z,39.92
2023-01-03T04:17:31.082Z,39.95
2023-01-03T04:18:31.168Z,39.95
2023-01-03T04:19:31.252Z,39.95
2023-01-03T04:20:31.316Z,39.93
2023-01-03T04:21:31.395Z,39.92
2023-01-03T04:22:31.496Z,39.90
2023-01-03T04:23:31.555Z,39.90
2023-01-03T04:24:31.624Z,39.90
2023-01-03T04:25:31.713Z,39.89
2023-01-03T04:26:31.786Z,39.88
2023-01-03T04:27:31.888Z,39.88
2023-01-03T04:28:32.000Z,39.89
2023-01-03T04:29:38.810Z,39.86
2023-01-03T04:30:32.136Z,39.89
2023-01-03T04:31:32.231Z,39.88
2023-01-03T04:32:32.298Z,39.89
2023-01-03T04:33:32.395Z,39.88
2023-01-03T04:34:32.483Z,39.87
2023-01-03T04:35:32.559Z,39.84
2023-01-03T04:36:38.626Z,39.83
2023-01-03T04:37:32.741Z,39.86
2023-01-03T04:38:32.816Z,39.84
2023-01-03T04:39:32.918Z,39.82
2023-01-03T04:40:33.007Z,39.81
2023-01-03T04:41:33.085Z,39.80
2023-01-03T04:42:33.178Z,39.81
2023-01-03T04:43:33.260Z,39.79
2023-01-03T04:44:33.351Z,39.77
2023-01-03T04:45:33.441Z,39.77
2023-01-03T04:46:33.525Z,39.77
2023-01-03T04:47:33.616Z,39.78
2023-01-03T04:48:33.686Z,39.74
2023-01-03T04:49:33.750Z,39.76
2023-01-03T04:50:33.843Z,39.73
2023-01-03T04:51:33.935Z,39.76
2023-01-03T04:52:34.106Z,39.75
2023-01-03T04:53:34.103Z,39.74
2023-01-03T04:54:34.197Z,39.74
2023-01-03T04:55:34.286Z,39.74
2023-01-03T04:56:34.371Z,39.75
2023-01-03T04:57:34.454Z,39.75
2023-01-03T04:58:34.537Z,39.72
2023-01-03T04:59:34.617Z,39.71
2023-01-03T05:00:34.683Z,39.72
2023-01-03T05:01:34.871Z,39.71
2023-01-03T05:02:34.911Z,39.70
2023-01-03T05:03:34.927Z,39.68
2023-01-03T05:04:35.044Z,39.66
2023-01-03T05:05:35.070Z,39.65
2023-01-03T05:06:35.156Z,39.66
2023-01-03T05:07:41.199Z,39.63
2023-01-03T05:08:35.298Z,39.66
2023-01-03T05:09:35.388Z,39.65
2023-01-03T05:10:35.528Z,39.66
2023-01-03T05:11:35.583Z,39.66
2023-01-03T05:12:35.656Z,39.68
2023-01-03T05:13:35.711Z,39.64
2023-01-03T05:14:35.826Z,39.61
2023-01-03T05:15:35.914Z,39.60
2023-01-03T05:16:36.040Z,39.57
2023-01-03T05:17:36.093Z,39.56
2023-01-03T05:18:36.160Z,39.55
2023-01-03T05:19:39.654Z,39.53
2023-01-03T05:20:36.351Z,39.54
2023-01-03T05:21:36.453Z,39.55
2023-01-03T05:22:36.549Z,39.52
2023-01-03T05:23:36.602Z,39.53
2023-01-03T05:24:36.668Z,39.50
2023-01-03T05:25:36.750Z,39.50
2023-01-03T05:26:36.820Z,39.50
2023-01-03T05:27:36.904Z,39.46
2023-01-03T05:28:36.998Z,39.47
2023-01-03T05:29:37.078Z,39.47
2023-01-03T05:30:37.160Z,39.47
2023-01-03T05:31:37.340Z,39.48
2023-01-03T05:32:37.332Z,39.48
2023-01-03T05:33:37.416Z,39.47
2023-01-03T05:34:37.492Z,39.46
2023-01-03T05:35:37.553Z,39.45
2023-01-03T05:36:37.633Z,39.45
2023-01-03T05:37:37.680Z,39.46
2023-01-03T05:38:43.736Z,39.44
2023-01-03T05:39:37.861Z,39.45
2023-01-03T05:40:41.456Z,39.45
2023-01-03T05:41:38.014Z,39.46
2023-01-03T05:42:38.085Z,39.47
2023-01-03T05:43:38.194Z,39.44
2023-01-03T05:44:38.290Z,39.42
2023-01-03T05:45:38.367Z,39.42
2023-01-03T05:46:38.520Z,39.41
2023-01-03T05:47:38.528Z,39.43
2023-01-03T05:48:38.626Z,39.41
2023-01-03T05:49:38.717Z,39.42
2023-01-03T05:50:38.806Z,39.39
2023-01-03T05:51:38.895Z,39.42
2023-01-03T05:52:38.990Z,39.39
2023-01-03T05:53:39.058Z,39.39
2023-01-03T05:54:39.170Z,39.37
2023-01-03T05:55:39.243Z,39.37
2023-01-03T05:56:39.317Z,39.35
2023-01-03T05:57:39.414Z,39.38
2023-01-03T05:58:39.486Z,39.39
2023-01-03T05:59:39.539Z,39.38
2023-01-03T06:00:39.632Z,39.38
2023-01-03T06:01:39.774Z,39.37
2023-01-03T06:02:39.793Z,39.37
2023-01-03T06:03:39.882Z,39.34
2023-01-03T06:04:40.012Z,39.35
2023-01-03T06:05:44.614Z,39.37
2023-01-03T06:06:40.101Z,39.38
2023-01-03T06:07:40.139Z,39.36
2023-01-03T06:08:40.229Z,39.34
2023-01-03T06:09:46.383Z,39.33
2023-01-03T06:10:40.374Z,39.38
2023-01-03T06:11:40.454Z,39.35
2023-01-03T06:12:40.535Z,39.35
2023-01-03T06:13:40.623Z,39.35
2023-01-03T06:14:40.701Z,39.31
2023-01-03T06:15:40.803Z,39.30
2023-01-03T06:16:40.981Z,39.33
2023-01-03T06:17:40.975Z,39.31
2023-01-03T06:18:41.058Z,39.38
2023-01-03T06:19:41.141Z,39.36
2023-01-03T06:20:41.406Z,39.36
2023-01-03T06:21:41.317Z,39.32
2023-01-03T06:22:41.365Z,39.31
2023-01-03T06:23:41.458Z,39.32
2023-01-03T06:24:41.537Z,39.30
2023-01-03T06:25:41.622Z,39.29
2023-01-03T06:26:41.731Z,39.28
2023-01-03T06:27:41.813Z,39.30
2023-01-03T06:28:41.993Z,39.29
2023-01-03T06:29:42.019Z,39.29
2023-01-03T06:30:42.174Z,39.29
2023-01-03T06:31:42.163Z,39.29
2023-01-03T06:32:42.253Z,39.28
2023-01-03T06:33:42.313Z,39.29
2023-01-03T06:34:42.397Z,39.30
2023-01-03T06:35:42.486Z,39.27
2023-01-03T06:36:42.583Z,39.27
2023-01-03T06:37:42.688Z,39.28
2023-01-03T06:38:42.756Z,39.28
2023-01-03T06:39:42.969Z,39.32
2023-01-03T06:40:48.958Z,39.25
2023-01-03T06:41:43.052Z,39.31
2023-01-03T06:42:43.640Z,39.27
2023-01-03T06:43:43.311Z,39.28
2023-01-03T06:44:43.225Z,39.27
2023-01-03T06:45:43.425Z,39.26
2023-01-03T06:46:43.538Z,39.30
2023-01-03T06:47:43.503Z,39.23
2023-01-03T06:48:43.618Z,39.23
2023-01-03T06:49:43.807Z,39.27
2023-01-03T06:50:43.815Z,39.30
2023-01-03T06:51:43.819Z,39.26
2023-01-03T06:52:43.916Z,39.27
2023-01-03T06:53:44.019Z,39.27
2023-01-03T06:54:44.215Z,39.26
2023-01-03T06:55:44.154Z,39.25
2023-01-03T06:56:44.245Z,39.22
2023-01-03T06:57:44.391Z,39.21
2023-01-03T06:58:44.399Z,39.22
2023-01-03T06:59:44.601Z,39.23
2023-01-03T07:00:44.630Z,39.24
2023-01-03T07:01:44.828Z,39.23
2023-01-03T07:02:44.965Z,39.21
2023-01-03T07:03:44.841Z,39.24
2023-01-03T07:04:44.990Z,39.25
2023-01-03T07:05:45.105Z,39.21
2023-01-03T07:06:45.071Z,39.22
2023-01-03T07:07:45.267Z,39.22
2023-01-03T07:08:48.408Z,39.22
2023-01-03T07:09:45.328Z,39.22
2023-01-03T07:10:45.406Z,39.23
2023-01-03T07:11:51.929Z,39.22
2023-01-03T07:12:45.566Z,39.23
2023-01-03T07:13:45.671Z,39.20
2023-01-03T07:14:45.742Z,39.20
2023-01-03T07:15:45.959Z,39.19
2023-01-03T07:16:45.949Z,39.20
2023-01-03T07:17:46.043Z,39.24
2023-01-03T07:18:52.821Z,39.19
2023-01-03T07:19:46.249Z,39.22
2023-01-03T07:20:46.258Z,39.18
2023-01-03T07:21:46.330Z,39.20
2023-01-03T07:22:46.427Z,39.21
2023-01-03T07:23:46.566Z,39.18
2023-01-03T07:24:46.766Z,39.19
2023-01-03T07:25:46.675Z,39.23
2023-01-03T07:26:47.118Z,39.19
2023-01-03T07:27:46.972Z,39.17
2023-01-03T07:28:46.973Z,39.17
2023-01-03T07:29:47.139Z,39.19
2023-01-03T07:30:47.300Z,39.19
2023-01-03T07:31:47.323Z,39.15
2023-01-03T07:32:47.247Z,39.15
2023-01-03T07:33:47.376Z,39.20
2023-01-03T07:34:47.430Z,39.17
2023-01-03T07:35:47.523Z,39.18
2023-01-03T07:36:47.650Z,39.18
2023-01-03T07:37:47.658Z,39.15
2023-01-03T07:38:47.747Z,39.19
2023-01-03T07:39:47.862Z,39.14
2023-01-03T07:40:47.958Z,39.14
2023-01-03T07:41:48.042Z,39.16
2023-01-03T07:42:54.451Z,39.17
2023-01-03T07:43:48.371Z,39.18
2023-01-03T07:44:48.277Z,39.17
2023-01-03T07:45:48.453Z,39.17
2023-01-03T07:46:48.527Z,39.14
2023-01-03T07:47:48.518Z,39.16
2023-01-03T07:48:48.585Z,39.15
2023-01-03T07:49:48.632Z,39.13
2023-01-03T07:50:48.705Z,39.18
2023-01-03T07:51:48.782Z,39.15
2023-01-03T07:52:48.881Z,39.13
2023-01-03T07:53:48.993Z,39.14
2023-01-03T07:54:49.055Z,39.12
2023-01-03T07:55:49.159Z,39.11
2023-01-03T07:56:49.253Z,39.13
2023-01-03T07:57:49.327Z,39.12
2023-01-03T07:58:49.470Z,39.14
2023-01-03T07:59:49.533Z,39.10
2023-01-03T08:00:49.657Z,39.10
2023-01-03T08:01:49.828Z,39.10
2023-01-03T08:02:49.919Z,39.09
2023-01-03T08:03:49.878Z,39.09
2023-01-03T08:04:50.009Z,39.12
2023-01-03T08:05:50.072Z,39.09
2023-01-03T08:06:50.137Z,39.09
2023-01-03T08:07:50.215Z,39.09
2023-01-03T08:08:50.295Z,39.09
2023-01-03T08:09:50.381Z,39.08
2023-01-03T08:10:50.516Z,39.09
2023-01-03T08:11:50.547Z,39.08
2023-01-03T08:12:50.638Z,39.08
2023-01-03T08:13:56.709Z,39.11
2023-01-03T08:14:50.804Z,39.12
2023-01-03T08:15:50.981Z,39.11
2023-01-03T08:16:51.020Z,39.10
2023-01-03T08:17:51.081Z,39.10
2023-01-03T08:18:51.166Z,39.08
2023-01-03T08:19:51.251Z,39.09
2023-01-03T08:20:51.331Z,39.08
2023-01-03T08:21:51.956Z,39.10
2023-01-03T08:22:51.498Z,39.08
2023-01-03T08:23:51.573Z,39.10
2023-01-03T08:24:51.675Z,39.09
2023-01-03T08:25:51.763Z,39.06
2023-01-03T08:26:51.831Z,39.09
2023-01-03T08:27:51.942Z,39.08
2023-01-03T08:28:52.060Z,39.10
2023-01-03T08:29:52.111Z,39.05
2023-01-03T08:30:52.201Z,39.05
2023-01-03T08:31:52.312Z,39.06
2023-01-03T08:32:52.404Z,39.05
2023-01-03T08:33:52.469Z,39.03
2023-01-03T08:34:52.548Z,39.08
2023-01-03T08:35:52.636Z,39.02
2023-01-03T08:36:52.746Z,39.01
2023-01-03T08:37:52.833Z,39.01
2023-01-03T08:38:52.907Z,39.01
2023-01-03T08:39:53.010Z,38.97
2023-01-03T08:40:53.146Z,38.97
2023-01-03T08:41:53.158Z,39.02
2023-01-03T08:42:53.255Z,39.01
2023-01-03T08:43:53.319Z,39.00
2023-01-03T08:44:59.502Z,38.98
2023-01-03T08:45:53.486Z,39.02
2023-01-03T08:46:53.627Z,38.99
2023-01-03T08:47:53.627Z,39.04
2023-01-03T08:48:53.702Z,38.98
2023-01-03T08:49:53.786Z,39.05
2023-01-03T08:50:53.908Z,39.07
2023-01-03T08:51:53.993Z,38.99
2023-01-03T08:52:54.034Z,39.07
2023-01-03T08:53:54.116Z,39.01
2023-01-03T08:54:54.187Z,39.03
2023-01-03T08:55:54.252Z,38.97
2023-01-03T08:56:54.363Z,39.01
2023-01-03T08:57:54.438Z,39.00
2023-01-03T08:58:54.518Z,38.98
2023-01-03T08:59:54.643Z,38.98
2023-01-03T09:00:54.692Z,38.99
2023-01-03T09:01:54.956Z,38.98
2023-01-03T09:02:55.038Z,38.98
2023-01-03T09:03:55.145Z,38.95
2023-01-03T09:04:55.008Z,39.04
2023-01-03T09:05:55.087Z,38.95
2023-01-03T09:06:55.175Z,38.95
2023-01-03T09:07:55.286Z,39.00
2023-01-03T09:08:55.328Z,38.94
2023-01-03T09:09:55.418Z,38.96
2023-01-03T09:10:55.512Z,38.92
2023-01-03T09:11:55.606Z,38.97
2023-01-03T09:12:55.692Z,38.89
2023-01-03T09:13:55.739Z,38.97
2023-01-03T09:14:55.823Z,38.93
2023-01-03T09:16:01.946Z,38.99
2023-01-03T09:16:56.076Z,38.98
2023-01-03T09:17:56.091Z,39.00
2023-01-03T09:18:56.214Z,38.96
2023-01-03T09:19:56.235Z,38.90
2023-01-03T09:20:56.334Z,38.95
2023-01-03T09:21:56.465Z,38.86
2023-01-03T09:22:56.518Z,38.91
2023-01-03T09:23:56.611Z,38.85
2023-01-03T09:24:56.675Z,38.91
2023-01-03T09:25:56.775Z,38.93
2023-01-03T09:26:56.813Z,38.86
2023-01-03T09:27:56.920Z,38.91
2023-01-03T09:28:56.993Z,38.86
2023-01-03T09:29:57.106Z,38.90
2023-01-03T09:30:57.162Z,38.91
2023-01-03T09:31:57.289Z,38.88
2023-01-03T09:32:57.335Z,38.91
2023-01-03T09:33:57.417Z,38.93
2023-01-03T09:34:57.518Z,38.88
2023-01-03T09:35:57.596Z,38.87
2023-01-03T09:36:57.706Z,38.84
2023-01-03T09:37:57.779Z,38.88
2023-01-03T09:38:57.861Z,38.85
2023-01-03T09:39:57.954Z,38.81
2023-01-03T09:40:58.114Z,38.88
2023-01-03T09:41:58.118Z,38.89
2023-01-03T09:42:58.199Z,38.89
2023-01-03T09:43:58.267Z,38.85
2023-01-03T09:44:58.345Z,38.89
2023-01-03T09:45:58.444Z,38.88
2023-01-03T09:47:04.630Z,38.85
2023-01-03T09:47:58.567Z,38.88
2023-01-03T09:48:58.641Z,38.88
2023-01-03T09:50:27.651Z,38.82
2023-01-03T09:51:19.743Z,38.90
2023-01-03T09:51:58.900Z,38.90
2023-01-03T09:52:59.000Z,38.91
2023-01-03T09:53:59.031Z,38.86
2023-01-03T09:54:59.091Z,38.84
2023-01-03T09:55:59.192Z,38.90
2023-01-03T09:56:59.297Z,38.86
2023-01-03T09:57:59.341Z,38.82
2023-01-03T09:58:59.423Z,38.88
2023-01-03T09:59:59.470Z,38.87
2023-01-03T10:00:59.629Z,38.90
2023-01-03T10:01:59.876Z,38.85
2023-01-03T10:02:59.886Z,38.83
2023-01-03T10:03:59.796Z,38.85
2023-01-03T10:04:59.847Z,38.84
2023-01-03T10:05:59.938Z,38.87
2023-01-03T10:07:00.015Z,38.82
2023-01-03T10:08:00.132Z,38.80
2023-01-03T10:09:00.204Z,38.84
2023-01-03T10:10:00.301Z,38.83
2023-01-03T10:11:00.363Z,38.84
2023-01-03T10:12:00.455Z,38.85
2023-01-03T10:13:00.554Z,38.83
2023-01-03T10:14:00.651Z,38.88
2023-01-03T10:15:00.760Z,38.85
2023-01-03T10:16:00.833Z,38.95
2023-01-03T10:17:01.091Z,38.86
2023-01-03T10:18:06.955Z,38.76
2023-01-03T10:19:01.048Z,38.90
2023-01-03T10:20:01.148Z,38.90
2023-01-03T10:21:01.247Z,38.85
2023-01-03T10:22:01.298Z,38.82
2023-01-03T10:23:01.414Z,38.88
2023-01-03T10:24:01.469Z,38.87
2023-01-03T10:25:01.551Z,38.84
2023-01-03T10:26:01.649Z,38.86
2023-01-03T10:27:01.725Z,38.89
2023-01-03T10:28:01.860Z,38.78
2023-01-03T10:29:01.904Z,38.86
2023-01-03T10:30:01.959Z,38.83
2023-01-03T10:31:07.635Z,38.87
2023-01-03T10:32:02.208Z,38.89
2023-01-03T10:33:02.188Z,38.76
2023-01-03T10:34:02.273Z,38.88
2023-01-03T10:35:02.353Z,38.86
2023-01-03T10:36:02.441Z,38.85
2023-01-03T10:37:02.519Z,38.87
2023-01-03T10:38:02.568Z,38.88
2023-01-03T10:39:02.659Z,38.82
2023-01-03T10:40:02.748Z,38.79
2023-01-03T10:41:02.832Z,38.83
2023-01-03T10:42:02.934Z,38.88
2023-01-03T10:43:03.040Z,38.86
2023-01-03T10:44:03.111Z,38.83
2023-01-03T10:45:03.182Z,38.81
2023-01-03T10:46:03.293Z,38.84
2023-01-03T10:47:03.333Z,38.89
2023-01-03T10:48:03.431Z,38.77
2023-01-03T10:50:03.588Z,38.92
2023-01-03T10:51:03.669Z,38.87
2023-01-03T10:52:03.810Z,38.84
2023-01-03T10:53:03.843Z,38.85
2023-01-03T10:54:03.912Z,38.79
2023-01-03T10:55:03.995Z,38.73
2023-01-03T10:56:04.053Z,38.80
2023-01-03T10:57:04.131Z,38.76
2023-01-03T10:58:04.222Z,38.79
2023-01-03T10:59:04.286Z,38.74
2023-01-03T11:00:04.421Z,38.78
2023-01-03T11:01:04.540Z,38.76
2023-01-03T11:02:04.742Z,38.87
2023-01-03T11:03:04.747Z,38.75
2023-01-03T11:04:04.726Z,38.84
2023-01-03T11:05:04.800Z,38.79
2023-01-03T11:06:04.871Z,38.80
2023-01-03T11:07:04.968Z,38.86
2023-01-03T11:08:05.041Z,38.76
2023-01-03T11:09:05.114Z,38.81
2023-01-03T11:10:05.213Z,38.79
2023-01-03T11:11:05.276Z,38.72
2023-01-03T11:12:05.365Z,38.79
2023-01-03T11:13:05.472Z,38.80
2023-01-03T11:14:05.516Z,38.80
2023-01-03T11:15:05.609Z,38.83
2023-01-03T11:16:05.704Z,38.79
2023-01-03T11:17:05.978Z,38.71
2023-01-03T11:18:05.928Z,38.71
2023-01-03T11:19:05.949Z,38.76
2023-01-03T11:20:12.027Z,38.82
2023-01-03T11:21:06.114Z,38.72
2023-01-03T11:22:06.197Z,38.85
2023-01-03T11:23:06.276Z,38.76
2023-01-03T11:24:06.372Z,38.75
2023-01-03T11:25:06.482Z,38.78
2023-01-03T11:26:06.522Z,38.72
2023-01-03T11:27:06.597Z,38.75
2023-01-03T11:28:10.515Z,38.82
2023-01-03T11:29:06.794Z,38.85
2023-01-03T11:30:06.877Z,38.80
2023-01-03T11:31:06.987Z,38.75
2023-01-03T11:32:07.164Z,38.82
2023-01-03T11:33:07.127Z,38.75
2023-01-03T11:34:07.211Z,38.74
2023-01-03T11:35:24.327Z,38.83
2023-01-03T11:36:07.346Z,38.77
2023-01-03T11:37:07.452Z,38.70
2023-01-03T11:38:07.493Z,38.77
2023-01-03T11:39:14.444Z,38.81
2023-01-03T11:40:07.673Z,38.84
2023-01-03T11:41:07.754Z,38.80
2023-01-03T11:42:07.872Z,38.81
2023-01-03T11:43:07.927Z,38.75
2023-01-03T11:44:08.024Z,38.75
2023-01-03T11:45:08.100Z,38.74
2023-01-03T11:46:08.241Z,38.78
2023-01-03T11:47:08.290Z,38.81
2023-01-03T11:48:08.399Z,38.80
2023-01-03T11:49:08.447Z,38.74
2023-01-03T11:50:08.517Z,38.74
2023-01-03T11:51:14.577Z,38.69
2023-01-03T11:52:08.676Z,38.74
2023-01-03T11:53:08.776Z,38.72
2023-01-03T11:54:08.858Z,38.83
2023-01-03T11:55:08.935Z,38.81
2023-01-03T11:56:08.992Z,38.81
2023-01-03T11:57:09.083Z,38.75
2023-01-03T11:58:09.165Z,38.76
2023-01-03T11:59:09.263Z,38.71
2023-01-03T12:00:09.308Z,38.68
2023-01-03T12:01:09.431Z,38.69
2023-01-03T12:02:09.654Z,38.69
2023-01-03T12:03:09.777Z,38.77
2023-01-03T12:04:09.764Z,38.69
2023-01-03T12:05:09.746Z,38.65
2023-01-03T12:06:09.832Z,38.71
2023-01-03T12:07:45.767Z,38.71
2023-01-03T12:08:09.996Z,38.72
2023-01-03T12:09:10.051Z,38.76
2023-01-03T12:10:10.126Z,38.73
2023-01-03T12:11:10.201Z,38.77
2023-01-03T12:12:10.295Z,38.76
2023-01-03T12:13:10.402Z,38.76
2023-01-03T12:14:10.478Z,38.73
2023-01-03T12:15:10.549Z,38.75
2023-01-03T12:16:10.722Z,38.77
2023-01-03T12:17:10.663Z,38.72
2023-01-03T12:18:10.738Z,38.70
2023-01-03T12:19:12.676Z,38.68
2023-01-03T12:20:10.892Z,38.74
2023-01-03T12:21:10.993Z,38.73
2023-01-03T12:22:17.022Z,38.74
2023-01-03T12:23:11.123Z,38.73
2023-01-03T12:24:11.230Z,38.71
2023-01-03T12:25:11.305Z,38.69
2023-01-03T12:26:11.398Z,38.72
2023-01-03T12:27:11.508Z,38.69
2023-01-03T12:28:11.582Z,38.74
2023-01-03T12:29:11.634Z,38.70
2023-01-03T12:30:11.708Z,38.69
2023-01-03T12:31:11.913Z,38.66
2023-01-03T12:32:11.919Z,38.71
2023-01-03T12:33:12.049Z,38.66
2023-01-03T12:34:12.088Z,38.68
2023-01-03T12:35:12.164Z,38.69
2023-01-03T12:36:12.232Z,38.70
2023-01-03T12:37:12.321Z,38.69
2023-01-03T12:38:12.443Z,38.68
2023-01-03T12:39:12.538Z,38.70
2023-01-03T12:40:12.571Z,38.69
2023-01-03T12:41:12.662Z,38.70
2023-01-03T12:42:12.758Z,38.69
2023-01-03T12:43:12.852Z,38.69
2023-01-03T12:44:12.973Z,38.68
2023-01-03T12:45:13.720Z,38.69
2023-01-03T12:46:13.561Z,38.69
2023-01-03T12:47:13.403Z,38.69
2023-01-03T12:48:13.271Z,38.69
2023-01-03T12:49:13.374Z,38.73
2023-01-03T12:50:13.442Z,38.70
2023-01-03T12:51:13.605Z,38.67
2023-01-03T12:52:17.115Z,38.66
2023-01-03T12:53:19.681Z,38.72
2023-01-03T12:54:13.787Z,38.72